Medford, OR (97501)

12:42 PM PDT on October 25, 2014 (GMT -0700)
Southwest Medford (CW2551) | Change Station
CLOSE
Current Station
Personal Weather Station
Location: Medford, OR
Elevation: 1472 ft
Nearby Weather Stations

Elev 1472 ft 42.31 °N, 122.90 °W | Updated 1 second ago

Overcast
Overcast
59.2 °F
Feels Like 59.2 °F
N
13.8
Wind Variable Wind from South
Gusts 13.8 mph

Today
High -- | Low -- °F
--% Chance of Precip.
Yesterday
High -- | Low -- °F
Precip. -- in
7:36 AM 6:14 PM
Waxing Crescent, 4% visible
Pressure 29.58 in
Visibility 10.0 miles
Clouds Scattered Clouds 4900 ft
Scattered Clouds 7000 ft
Mostly Cloudy 9000 ft
Dew Point 51 °F
Humidity 75%
Rainfall 0.05 in
Snow Depth 0 in
UV 1.1 out of 12
Pollen .40 out of 12
Air Quality Not available.
Flu Activity Sporadic
METAR KMFR 251853Z 26013G17KT 10SM -RA SCT049 SCT070 BKN090 17/09 A2959 RMK AO2 RAE20B37 SLP017 P0000 T01720094

More Conditions Fewer Conditions

Pressure 29.58 in
Visibility 10.0 miles
Clouds Scattered Clouds 4900 ft
Scattered Clouds 7000 ft
Mostly Cloudy 9000 ft
Dew Point 51 °F
Humidity 75%
Rainfall 0.05 in
Snow Depth 0 in
UV 1.1 out of 12
Pollen .40 out of 12
Air Quality Not available.
Flu Activity Sporadic
METAR KMFR 251853Z 26013G17KT 10SM -RA SCT049 SCT070 BKN090 17/09 A2959 RMK AO2 RAE20B37 SLP017 P0000 T01720094

More Conditions Fewer Conditions

10-Day Weather Forecast

Almanac

Astronomy

Oct. 25, 2014 Rise Set
Actual Time 7:36 AM PDT 6:14 PM PDT
Civil Twilight 7:07 AM PDT 6:42 PM PDT
Nautical Twilight 6:34 AM PDT 7:15 PM PDT
Astronomical Twilight 6:02 AM PDT 7:48 PM PDT
Moon 9:22 AM PDT 7:39 PM PDT
Length of Visible Light 11h 35m
Length of Day
10h 37m
Tomorrow will be 2m 38s shorter.
Waxing Crescent, 4% of the Moon is Illuminated
Today
Waxing Crescent
Oct 30
First Quarter
Nov 6
Full
Nov 14
Last Quarter
Nov 22
New

Today's Extremes

State Highs State Lows

Community

WunderPhotos

Upload Photos

1,764,972 photos uploaded!

Nearby

Snow Depth

Station Depth Elevation
Big Red Mountain 0 in 6250 ft
Fish Lake 0 in 4665 ft
Billie Creek Divide 0 in 5300 ft
Cold Springs Camp 0 in 6100 ft
Sevenmile Marsh 0 in 6200 ft

Earthquake Activity

City Distance Mag. Time & Date
No recent earthquake activity has been reported nearby.
Minimum magnitude displayed is 2.5.

Coastal Water Temperatures

Place Temperature
No Stations Reporting

Nearby Weather Stations